Akron, Michigan
Current Conditions -  °F | °C
As of 7:14 AM on Friday 19 Dec 2014 (Local Time) from KCFS Reporting Station
Clear Clear  
Wind Chill: 15°   Ceiling: Unl
Heat Index: 22°   Visibility: 10mi
Dew Point: 18°   Wind: 5mph
Humidity: 87%   Direction: 290°WNW
Pressure: 30.26"   Gusts: NA
Location:  43.57°N, 83.51°W
Report Text: KCFS 191214Z AUTO 29004KT 10SM CLR M06/M08 A3026 RMK AO2 T10571076
Loading
Personal Weather Stations






























Interactive Weather Map New forecast layout! Learn more

10-Day Weather Forecast

Advertisements
Track Severe Weather on mobile